Englewood, Florida
Current Conditions -  °F | °C
As of 8:21 AM on Wednesday 22 Oct 2014 (Local Time) from KPGD Reporting Station
Moderate Fog Moderate Fog  
Wind Chill: 71°   Ceiling: 200
Heat Index: 71°   Visibility: 0.5mi
Dew Point: 70°   Wind: 3mph
Humidity: 96%   Direction: 110°ESE
Pressure: 29.99"   Gusts: NA
Location:  26.95°N, 82.35°W
Report Text: KPGD 221221Z 11003KT 1/2SM FG OVC002 22/21 A2999 RMK AO2 T02170211
Loading
Personal Weather Stations






























Interactive Weather Map
Tropical Storm Tracking
New forecast layout! Learn more

10-Day Weather Forecast

Advertisements
Track Severe Weather on mobile